createdAt,value
2022-12-25T00:00:00.759Z,4.07
2022-12-25T00:02:29.751Z,3.90
2022-12-25T00:04:58.239Z,3.40
2022-12-25T00:07:27.731Z,4.45
2022-12-25T00:09:55.834Z,3.97
2022-12-25T00:12:23.945Z,3.58
2022-12-25T00:14:52.313Z,4.07
2022-12-25T00:17:20.461Z,4.10
2022-12-25T00:19:48.538Z,3.70
2022-12-25T00:22:16.660Z,4.93
2022-12-25T00:24:48.012Z,4.05
2022-12-25T00:27:16.701Z,3.92
2022-12-25T00:29:44.826Z,3.60
2022-12-25T00:32:12.980Z,3.53
2022-12-25T00:34:41.102Z,3.88
2022-12-25T00:37:09.268Z,4.00
2022-12-25T00:39:37.433Z,4.05
2022-12-25T00:42:23.919Z,3.53
2022-12-25T00:44:52.555Z,3.40
2022-12-25T00:47:20.844Z,3.50
2022-12-25T00:49:49.034Z,3.42
2022-12-25T00:52:17.206Z,3.90
2022-12-25T00:54:45.462Z,3.28
2022-12-25T00:57:14.994Z,3.13
2022-12-25T00:59:43.147Z,3.38
2022-12-25T01:02:26.549Z,3.50
2022-12-25T01:04:56.250Z,3.60
2022-12-25T01:07:26.180Z,3.60
2022-12-25T01:10:11.673Z,2.90
2022-12-25T01:12:43.515Z,3.20
2022-12-25T01:15:13.246Z,3.47
2022-12-25T01:17:41.794Z,3.00
2022-12-25T01:20:11.450Z,3.50
2022-12-25T01:22:39.673Z,3.38
2022-12-25T01:25:09.268Z,3.20
2022-12-25T01:27:37.499Z,3.45
2022-12-25T01:30:08.319Z,3.30
2022-12-25T01:32:36.454Z,3.15
2022-12-25T01:35:05.123Z,3.50
2022-12-25T01:37:33.264Z,3.45
2022-12-25T01:40:01.432Z,3.22
2022-12-25T01:42:29.648Z,3.45
2022-12-25T01:45:37.327Z,3.17
2022-12-25T01:48:09.797Z,2.72
2022-12-25T01:50:40.278Z,2.95
2022-12-25T01:53:08.945Z,3.72
2022-12-25T01:55:38.974Z,3.25
2022-12-25T02:00:36.666Z,3.00
2022-12-25T02:03:05.291Z,2.72
2022-12-25T02:05:35.554Z,2.85
2022-12-25T02:08:08.800Z,2.55
2022-12-25T02:10:38.850Z,3.25
2022-12-25T02:15:43.592Z,2.67
2022-12-25T02:18:17.690Z,2.95
2022-12-25T02:21:30.387Z,2.97
2022-12-25T02:24:17.172Z,3.08
2022-12-25T02:27:05.809Z,3.33
2022-12-25T02:29:42.572Z,3.05
2022-12-25T02:32:20.237Z,2.97
2022-12-25T02:34:50.957Z,2.90
2022-12-25T02:37:24.834Z,3.13
2022-12-25T02:40:01.575Z,2.75
2022-12-25T02:42:54.752Z,2.40
2022-12-25T02:45:47.434Z,2.60
2022-12-25T02:48:34.436Z,2.28
2022-12-25T02:51:24.256Z,2.60
2022-12-25T02:54:12.822Z,2.28
2022-12-25T02:57:00.260Z,2.33
2022-12-25T02:59:49.249Z,2.40
2022-12-25T03:02:37.055Z,2.50
2022-12-25T03:05:26.123Z,2.35
2022-12-25T03:07:54.659Z,2.53
2022-12-25T03:10:40.942Z,2.10
2022-12-25T03:13:14.553Z,2.72
2022-12-25T03:16:00.541Z,2.13
2022-12-25T03:18:32.302Z,2.40
2022-12-25T03:21:18.404Z,2.80
2022-12-25T03:24:09.386Z,2.58
2022-12-25T03:26:55.981Z,2.67
2022-12-25T03:29:41.738Z,2.60
2022-12-25T03:32:21.024Z,2.20
2022-12-25T03:35:16.616Z,2.43
2022-12-25T03:38:13.798Z,2.53
2022-12-25T03:41:19.549Z,2.10
2022-12-25T03:44:14.513Z,2.78
2022-12-25T03:47:06.956Z,2.50
2022-12-25T03:50:00.184Z,2.22
2022-12-25T03:52:49.186Z,2.33
2022-12-25T03:55:36.849Z,2.20
2022-12-25T03:58:22.868Z,2.03
2022-12-25T04:01:08.586Z,2.38
2022-12-25T04:03:54.474Z,2.25
2022-12-25T04:06:40.098Z,2.13
2022-12-25T04:09:26.981Z,1.88
2022-12-25T04:12:12.671Z,2.35
2022-12-25T04:14:58.249Z,2.00
2022-12-25T04:17:44.400Z,1.90
2022-12-25T04:20:30.804Z,2.13
2022-12-25T04:23:16.339Z,2.72
2022-12-25T04:26:03.425Z,2.13
2022-12-25T04:28:48.986Z,2.33
2022-12-25T04:31:34.963Z,1.98
2022-12-25T04:34:19.853Z,2.17
2022-12-25T04:36:48.009Z,2.17
2022-12-25T04:39:16.142Z,1.98
2022-12-25T04:41:45.668Z,2.00
2022-12-25T04:44:14.066Z,2.05
2022-12-25T04:46:42.241Z,2.10
2022-12-25T04:49:11.494Z,1.70
2022-12-25T04:51:39.653Z,1.80
2022-12-25T04:54:07.792Z,1.77
2022-12-25T04:56:41.629Z,2.00
2022-12-25T04:59:15.077Z,1.85
2022-12-25T05:01:43.450Z,2.05
2022-12-25T05:04:11.619Z,1.70
2022-12-25T05:06:40.368Z,1.77
2022-12-25T05:09:08.726Z,1.70
2022-12-25T05:11:36.869Z,1.75
2022-12-25T05:14:05.046Z,1.50
2022-12-25T05:16:34.985Z,2.00
2022-12-25T05:19:03.171Z,1.73
2022-12-25T05:21:31.313Z,2.10
2022-12-25T05:23:59.500Z,1.80
2022-12-25T05:26:28.345Z,1.60
2022-12-25T05:28:56.858Z,1.70
2022-12-25T05:31:25.549Z,1.90
2022-12-25T05:33:55.435Z,1.52
2022-12-25T05:36:23.664Z,1.60
2022-12-25T05:38:52.351Z,1.65
2022-12-25T05:41:20.560Z,1.33
2022-12-25T05:43:48.727Z,1.50
2022-12-25T05:46:17.898Z,1.45
2022-12-25T05:48:46.161Z,1.43
2022-12-25T05:51:16.532Z,1.75
2022-12-25T05:53:45.805Z,1.95
2022-12-25T05:56:13.939Z,1.67
2022-12-25T05:58:42.377Z,1.48
2022-12-25T06:01:15.121Z,1.70
2022-12-25T06:03:43.601Z,1.92
2022-12-25T06:06:12.284Z,1.80
2022-12-25T06:08:42.177Z,1.50
2022-12-25T06:11:12.062Z,1.40
2022-12-25T06:13:40.245Z,1.40
2022-12-25T06:16:09.920Z,1.65
2022-12-25T06:18:38.960Z,1.70
2022-12-25T06:21:10.833Z,1.58
2022-12-25T06:23:40.055Z,1.23
2022-12-25T06:26:11.783Z,1.60
2022-12-25T06:28:40.149Z,1.40
2022-12-25T06:31:09.402Z,1.40
2022-12-25T06:33:38.144Z,1.10
2022-12-25T06:36:08.268Z,1.33
2022-12-25T06:38:36.559Z,1.23
2022-12-25T06:41:07.043Z,1.48
2022-12-25T06:43:36.572Z,1.30
2022-12-25T06:46:05.830Z,1.33
2022-12-25T06:48:34.149Z,1.00
2022-12-25T06:51:03.359Z,1.10
2022-12-25T06:53:38.913Z,1.37
2022-12-25T06:56:15.697Z,1.20
2022-12-25T06:58:46.874Z,1.25
2022-12-25T07:01:20.988Z,1.48
2022-12-25T07:03:50.648Z,1.23
2022-12-25T07:06:20.195Z,1.20
2022-12-25T07:08:48.474Z,1.20
2022-12-25T07:11:17.286Z,1.67
2022-12-25T07:13:46.822Z,1.80
2022-12-25T07:16:15.480Z,1.52
2022-12-25T07:18:45.103Z,1.38
2022-12-25T07:21:15.288Z,1.83
2022-12-25T07:23:44.553Z,1.95
2022-12-25T07:26:13.700Z,1.50
2022-12-25T07:28:42.221Z,1.60
2022-12-25T07:31:14.312Z,1.60
2022-12-25T07:33:42.865Z,1.17
2022-12-25T07:36:14.601Z,1.55
2022-12-25T07:38:43.687Z,1.52
2022-12-25T07:41:13.078Z,1.80
2022-12-25T07:43:42.043Z,1.73
2022-12-25T07:46:13.044Z,1.55
2022-12-25T07:48:41.238Z,1.30
2022-12-25T07:51:12.710Z,1.73
2022-12-25T07:53:41.642Z,1.73
2022-12-25T07:56:13.079Z,1.80
2022-12-25T07:58:41.821Z,2.17
2022-12-25T08:01:16.684Z,2.15
2022-12-25T08:03:49.444Z,1.40
2022-12-25T08:06:18.017Z,1.45
2022-12-25T08:08:46.359Z,1.60
2022-12-25T08:11:15.540Z,1.90
2022-12-25T08:13:44.204Z,1.70
2022-12-25T08:16:13.821Z,1.30
2022-12-25T08:18:43.225Z,1.50
2022-12-25T08:21:13.033Z,1.10
2022-12-25T08:23:42.657Z,1.40
2022-12-25T08:26:14.299Z,1.48
2022-12-25T08:28:42.713Z,1.25
2022-12-25T08:31:22.516Z,1.10
2022-12-25T08:33:52.746Z,1.20
2022-12-25T08:36:21.438Z,1.55
2022-12-25T08:38:50.784Z,1.40
2022-12-25T08:41:19.413Z,1.33
2022-12-25T08:43:56.677Z,1.88
2022-12-25T08:46:26.425Z,1.20
2022-12-25T08:48:56.860Z,1.15
2022-12-25T08:51:26.981Z,1.00
2022-12-25T08:54:01.045Z,1.13
2022-12-25T08:56:29.608Z,2.05
2022-12-25T08:58:57.930Z,1.38
2022-12-25T09:01:28.113Z,1.20
2022-12-25T09:03:56.416Z,1.23
2022-12-25T09:06:24.689Z,0.90
2022-12-25T09:08:52.860Z,1.20
2022-12-25T09:11:22.513Z,1.17
2022-12-25T09:13:51.053Z,1.00
2022-12-25T09:16:22.114Z,1.27
2022-12-25T09:18:51.872Z,1.60
2022-12-25T09:21:20.645Z,1.20
2022-12-25T09:23:49.133Z,1.33
2022-12-25T09:26:19.043Z,1.38
2022-12-25T09:28:51.957Z,1.17
2022-12-25T09:31:21.035Z,1.17
2022-12-25T09:33:49.567Z,1.00
2022-12-25T09:36:21.352Z,0.98
2022-12-25T09:38:49.640Z,0.93
2022-12-25T09:41:25.213Z,1.20
2022-12-25T09:43:56.272Z,1.00
2022-12-25T09:46:36.399Z,1.30
2022-12-25T09:49:11.555Z,0.90
2022-12-25T09:51:43.670Z,1.20
2022-12-25T09:54:19.916Z,0.88
2022-12-25T09:56:48.067Z,1.05
2022-12-25T09:59:24.187Z,1.25
2022-12-25T10:02:05.247Z,1.08
2022-12-25T10:04:51.808Z,0.82
2022-12-25T10:07:31.167Z,0.90
2022-12-25T10:10:08.236Z,0.93
2022-12-25T10:12:47.054Z,0.90
2022-12-25T10:15:30.017Z,1.08
2022-12-25T10:18:19.529Z,0.90
2022-12-25T10:20:52.949Z,0.93
2022-12-25T10:23:28.432Z,1.00
2022-12-25T10:25:56.618Z,0.80
2022-12-25T10:28:31.549Z,0.85
2022-12-25T10:31:03.362Z,1.08
2022-12-25T10:33:32.052Z,0.90
2022-12-25T10:36:00.707Z,0.98
2022-12-25T10:38:30.236Z,0.65
2022-12-25T10:41:12.025Z,1.05
2022-12-25T10:43:44.721Z,0.85
2022-12-25T10:46:15.191Z,1.00
2022-12-25T10:48:47.075Z,1.35
2022-12-25T10:51:15.690Z,0.82
2022-12-25T10:53:45.330Z,0.70
2022-12-25T10:56:18.247Z,0.98
2022-12-25T10:58:46.895Z,0.70
2022-12-25T11:01:15.734Z,0.70
2022-12-25T11:03:48.643Z,0.95
2022-12-25T11:06:25.474Z,0.85
2022-12-25T11:08:58.621Z,0.90
2022-12-25T11:11:28.149Z,0.90
2022-12-25T11:13:58.112Z,1.10
2022-12-25T11:19:02.920Z,1.50
2022-12-25T11:21:33.052Z,2.33
2022-12-25T11:24:04.786Z,1.92
2022-12-25T11:26:37.943Z,2.20
2022-12-25T11:29:17.838Z,2.10
2022-12-25T11:31:48.595Z,1.70
2022-12-25T11:34:26.943Z,1.50
2022-12-25T11:36:55.295Z,1.80
2022-12-25T11:39:28.065Z,1.70
2022-12-25T11:42:01.394Z,1.55
2022-12-25T11:44:42.054Z,1.40
2022-12-25T11:47:17.741Z,1.90
2022-12-25T11:49:54.969Z,1.52
2022-12-25T11:52:30.410Z,2.05
2022-12-25T11:55:05.188Z,1.33
2022-12-25T11:57:36.392Z,1.48
2022-12-25T12:00:09.496Z,1.35
2022-12-25T12:02:44.621Z,1.40
2022-12-25T12:05:19.222Z,1.27
2022-12-25T12:07:55.785Z,1.20
2022-12-25T12:10:33.671Z,1.10
2022-12-25T12:13:14.192Z,1.30
2022-12-25T12:15:44.999Z,1.08
2022-12-25T12:18:22.860Z,1.20
2022-12-25T12:21:02.188Z,1.23
2022-12-25T12:23:32.206Z,1.13
2022-12-25T12:28:34.453Z,1.10
2022-12-25T12:31:05.165Z,1.30
2022-12-25T12:33:39.959Z,1.35
2022-12-25T12:36:14.212Z,1.00
2022-12-25T12:38:44.483Z,1.15
2022-12-25T12:41:15.419Z,1.40
2022-12-25T12:43:47.627Z,1.30
2022-12-25T12:46:23.015Z,1.10
2022-12-25T12:49:09.466Z,1.33
2022-12-25T12:51:40.723Z,1.30
2022-12-25T12:54:21.318Z,1.00
2022-12-25T12:57:01.744Z,0.95
2022-12-25T12:59:38.234Z,1.05
2022-12-25T13:02:23.619Z,1.23
2022-12-25T13:05:02.080Z,1.00
2022-12-25T13:07:44.408Z,1.08
2022-12-25T13:10:25.886Z,1.02
2022-12-25T13:12:59.688Z,1.10
2022-12-25T13:15:31.344Z,1.27
2022-12-25T13:18:03.921Z,1.10
2022-12-25T13:20:41.720Z,1.00
2022-12-25T13:23:24.652Z,1.20
2022-12-25T13:25:57.245Z,1.10
2022-12-25T13:28:31.998Z,1.05
2022-12-25T13:31:04.951Z,0.80
2022-12-25T13:33:34.127Z,1.50
2022-12-25T13:36:02.743Z,1.20
2022-12-25T13:38:30.970Z,0.90
2022-12-25T13:41:17.831Z,1.00
2022-12-25T13:43:49.589Z,1.05
2022-12-25T13:46:26.160Z,1.10
2022-12-25T13:48:59.620Z,1.00
2022-12-25T13:51:28.415Z,1.20
2022-12-25T13:54:05.604Z,1.15
2022-12-25T13:56:35.576Z,1.13
2022-12-25T14:01:34.434Z,0.80
2022-12-25T14:04:05.918Z,1.17
2022-12-25T14:06:34.252Z,1.10
2022-12-25T14:09:03.282Z,0.90
2022-12-25T14:11:33.709Z,1.20
2022-12-25T14:14:09.382Z,0.90
2022-12-25T14:16:37.733Z,1.10
2022-12-25T14:19:28.066Z,1.00
2022-12-25T14:22:00.970Z,1.10
2022-12-25T14:24:32.125Z,1.42
2022-12-25T14:27:06.995Z,1.05
2022-12-25T14:29:42.506Z,1.17
2022-12-25T14:32:16.096Z,1.25
2022-12-25T14:34:46.323Z,1.20
2022-12-25T14:37:18.223Z,1.50
2022-12-25T14:39:48.080Z,1.65
2022-12-25T14:42:22.925Z,1.15
2022-12-25T14:45:01.404Z,1.50
2022-12-25T14:47:31.027Z,1.45
2022-12-25T14:49:59.863Z,1.55
2022-12-25T14:52:31.143Z,2.30
2022-12-25T14:55:02.001Z,1.60
2022-12-25T14:57:33.943Z,1.23
2022-12-25T15:00:09.406Z,1.17
2022-12-25T15:02:44.535Z,1.20
2022-12-25T15:05:34.754Z,1.20
2022-12-25T15:08:22.520Z,1.23
2022-12-25T15:11:01.234Z,1.10
2022-12-25T15:13:32.236Z,1.08
2022-12-25T15:16:06.903Z,1.20
2022-12-25T15:18:39.270Z,1.30
2022-12-25T15:21:08.115Z,1.40
2022-12-25T15:23:36.303Z,1.55
2022-12-25T15:26:05.196Z,1.27
2022-12-25T15:28:33.831Z,1.30
2022-12-25T15:31:04.254Z,1.27
2022-12-25T15:33:33.206Z,1.27
2022-12-25T15:36:01.468Z,1.48
2022-12-25T15:38:36.433Z,1.30
2022-12-25T15:41:05.322Z,1.25
2022-12-25T15:43:41.622Z,1.30
2022-12-25T15:46:12.123Z,1.52
2022-12-25T15:48:40.323Z,1.23
2022-12-25T15:51:08.473Z,1.38
2022-12-25T15:53:37.256Z,1.60
2022-12-25T15:56:05.744Z,1.30
2022-12-25T15:58:33.889Z,1.27
2022-12-25T16:01:02.031Z,1.55
2022-12-25T16:03:31.718Z,1.20
2022-12-25T16:05:59.896Z,1.58
2022-12-25T16:08:28.343Z,1.20
2022-12-25T16:10:57.523Z,1.42
2022-12-25T16:13:27.881Z,1.67
2022-12-25T16:15:56.165Z,1.20
2022-12-25T16:18:25.559Z,1.50
2022-12-25T16:20:56.768Z,1.00
2022-12-25T16:23:25.497Z,1.30
2022-12-25T16:25:53.650Z,1.10
2022-12-25T16:28:21.785Z,1.10
2022-12-25T16:30:49.960Z,1.08
2022-12-25T16:33:18.480Z,1.13
2022-12-25T16:35:47.225Z,1.17
2022-12-25T16:38:16.758Z,1.10
2022-12-25T16:40:46.359Z,1.35
2022-12-25T16:43:18.874Z,1.08
2022-12-25T16:45:50.311Z,1.20
2022-12-25T16:48:18.492Z,1.67
2022-12-25T16:50:46.888Z,1.17
2022-12-25T16:53:16.397Z,1.13
2022-12-25T16:55:44.569Z,1.38
2022-12-25T16:58:12.747Z,1.33
2022-12-25T17:00:45.762Z,1.30
2022-12-25T17:03:17.455Z,1.35
2022-12-25T17:05:45.688Z,1.20
2022-12-25T17:08:13.801Z,1.20
2022-12-25T17:10:43.427Z,1.40
2022-12-25T17:13:11.572Z,1.17
2022-12-25T17:15:42.793Z,1.35
2022-12-25T17:18:14.882Z,1.35
2022-12-25T17:20:51.265Z,1.13
2022-12-25T17:23:19.753Z,1.40
2022-12-25T17:25:49.311Z,1.27
2022-12-25T17:28:17.832Z,1.30
2022-12-25T17:30:46.210Z,1.20
2022-12-25T17:33:14.662Z,1.50
2022-12-25T17:35:42.814Z,1.60
2022-12-25T17:38:11.407Z,1.60
2022-12-25T17:40:42.073Z,1.80
2022-12-25T17:43:15.715Z,1.40
2022-12-25T17:45:49.192Z,1.30
2022-12-25T17:48:18.127Z,1.48
2022-12-25T17:50:46.436Z,1.70
2022-12-25T17:53:14.717Z,1.60
2022-12-25T17:55:43.554Z,1.75
2022-12-25T17:58:13.225Z,1.52
2022-12-25T18:00:41.372Z,2.70
2022-12-25T18:03:11.970Z,3.05
2022-12-25T18:05:40.749Z,3.00
2022-12-25T18:08:08.879Z,2.55
2022-12-25T18:10:38.225Z,2.03
2022-12-25T18:13:06.955Z,2.53
2022-12-25T18:15:41.062Z,2.40
2022-12-25T18:18:10.260Z,2.40
2022-12-25T18:20:40.421Z,2.67
2022-12-25T18:23:09.318Z,2.30
2022-12-25T18:25:42.752Z,2.03
2022-12-25T18:28:11.873Z,2.55
2022-12-25T18:30:42.886Z,2.30
2022-12-25T18:33:11.501Z,1.95
2022-12-25T18:35:40.868Z,2.13
2022-12-25T18:38:10.075Z,2.28
2022-12-25T18:40:42.496Z,2.10
2022-12-25T18:43:11.431Z,2.03
2022-12-25T18:45:41.615Z,1.55
2022-12-25T18:48:10.380Z,1.95
2022-12-25T18:50:40.817Z,2.58
2022-12-25T18:53:09.230Z,2.33
2022-12-25T18:55:37.667Z,2.30
2022-12-25T18:58:05.799Z,2.25
2022-12-25T19:00:34.043Z,2.38
2022-12-25T19:03:03.654Z,2.10
2022-12-25T19:05:31.962Z,2.28
2022-12-25T19:08:00.099Z,2.10
2022-12-25T19:10:28.357Z,1.98
2022-12-25T19:12:56.527Z,2.10
2022-12-25T19:15:24.680Z,1.90
2022-12-25T19:17:53.130Z,2.30
2022-12-25T19:20:22.693Z,2.33
2022-12-25T19:22:50.826Z,2.00
2022-12-25T19:25:19.503Z,2.50
2022-12-25T19:27:47.676Z,2.83
2022-12-25T19:30:15.839Z,3.08
2022-12-25T19:32:43.981Z,3.30
2022-12-25T19:35:12.425Z,3.78
2022-12-25T19:37:41.941Z,4.20
2022-12-25T19:40:10.959Z,4.50
2022-12-25T19:42:39.338Z,4.27
2022-12-25T19:45:08.616Z,4.20
2022-12-25T19:47:36.745Z,4.20
2022-12-25T19:50:05.238Z,3.95
2022-12-25T19:52:33.834Z,3.85
2022-12-25T19:55:03.369Z,3.70
2022-12-25T19:57:31.568Z,3.20
2022-12-25T19:59:59.719Z,3.08
2022-12-25T20:02:28.174Z,2.85
2022-12-25T20:04:56.685Z,3.15
2022-12-25T20:07:24.849Z,2.10
2022-12-25T20:09:52.993Z,2.10
2022-12-25T20:12:22.510Z,2.38
2022-12-25T20:14:51.040Z,3.10
2022-12-25T20:17:19.252Z,3.15
2022-12-25T20:19:47.439Z,2.33
2022-12-25T20:22:15.600Z,2.97
2022-12-25T20:24:44.665Z,2.63
2022-12-25T20:27:12.798Z,2.90
2022-12-25T20:29:42.336Z,3.03
2022-12-25T20:32:10.693Z,2.65
2022-12-25T20:34:39.312Z,2.60
2022-12-25T20:37:07.532Z,2.63
2022-12-25T20:39:35.960Z,2.30
2022-12-25T20:42:04.405Z,2.25
2022-12-25T20:44:32.548Z,2.70
2022-12-25T20:47:03.571Z,2.17
2022-12-25T20:49:32.799Z,2.10
2022-12-25T20:52:05.356Z,2.28
2022-12-25T20:54:33.852Z,1.90
2022-12-25T20:57:02.165Z,2.00
2022-12-25T20:59:36.926Z,2.40
2022-12-25T21:02:07.735Z,2.17
2022-12-25T21:04:36.301Z,1.83
2022-12-25T21:07:05.283Z,2.40
2022-12-25T21:09:33.906Z,1.90
2022-12-25T21:12:02.063Z,2.50
2022-12-25T21:14:30.755Z,1.95
2022-12-25T21:16:59.521Z,2.28
2022-12-25T21:19:29.603Z,1.88
2022-12-25T21:24:25.956Z,1.95
2022-12-25T21:26:54.111Z,1.95
2022-12-25T21:29:23.046Z,2.15
2022-12-25T21:32:08.675Z,2.10
2022-12-25T21:34:38.515Z,2.10
2022-12-25T21:37:06.928Z,2.08
2022-12-25T21:39:35.406Z,1.85
2022-12-25T21:42:04.938Z,1.80
2022-12-25T21:44:33.192Z,1.90
2022-12-25T21:47:01.482Z,1.80
2022-12-25T21:49:47.051Z,1.88
2022-12-25T21:52:16.733Z,1.80
2022-12-25T21:54:45.540Z,2.13
2022-12-25T21:57:14.065Z,2.15
2022-12-25T21:59:42.657Z,2.00
2022-12-25T22:02:12.020Z,1.80
2022-12-25T22:04:40.969Z,2.03
2022-12-25T22:07:18.795Z,1.92
2022-12-25T22:09:50.160Z,2.13
2022-12-25T22:12:36.930Z,1.80
2022-12-25T22:15:07.483Z,2.15
2022-12-25T22:17:55.659Z,1.80
2022-12-25T22:20:26.117Z,2.05
2022-12-25T22:22:54.939Z,1.92
2022-12-25T22:25:25.531Z,1.85
2022-12-25T22:27:54.109Z,1.58
2022-12-25T22:30:24.128Z,1.90
2022-12-25T22:35:21.570Z,2.38
2022-12-25T22:37:50.047Z,1.90
2022-12-25T22:40:20.024Z,2.05
2022-12-25T22:45:19.033Z,2.00
2022-12-25T22:47:48.011Z,1.83
2022-12-25T22:50:16.945Z,1.98
2022-12-25T22:52:46.749Z,1.88
2022-12-25T22:55:18.712Z,1.95
2022-12-25T22:57:47.156Z,2.10
2022-12-25T23:00:17.073Z,2.05
2022-12-25T23:05:14.359Z,1.70
2022-12-25T23:07:42.933Z,2.08
2022-12-25T23:10:12.024Z,2.22
2022-12-25T23:12:57.391Z,2.08
2022-12-25T23:15:28.145Z,2.17
2022-12-25T23:18:13.895Z,2.13
2022-12-25T23:20:59.531Z,2.03
2022-12-25T23:23:45.471Z,2.33
2022-12-25T23:26:16.030Z,2.00
2022-12-25T23:29:02.105Z,2.30
2022-12-25T23:31:35.013Z,1.90
2022-12-25T23:34:03.701Z,2.13
2022-12-25T23:36:31.881Z,2.15
2022-12-25T23:39:06.700Z,2.15
2022-12-25T23:41:37.071Z,2.00
2022-12-25T23:44:05.576Z,1.88
2022-12-25T23:46:35.317Z,1.90
2022-12-25T23:49:03.556Z,2.15
2022-12-25T23:51:31.714Z,2.05
2022-12-25T23:53:59.853Z,2.35
2022-12-25T23:56:28.008Z,2.10
2022-12-25T23:58:56.235Z,2.08
